Main page
METAR-TAF:

METAR-TAF

Airports :

Turin-Aeritalia Airport

Turin, Italy

latitude: 45-05-20N, longitude: 007-36-20E, elevation: 288 m

Current weather observation

The report was made 37 minutes ago, at 13:50 UTC
Wind 3 kt from the East/Northeast
Temperature 15°C
Humidity 72%
Pressure 1027 hPa
Visibility 10 km or more
no clouds below 1500 m and no cumulonimbus

METAR: LIMA 141350Z 07003KT CAVOK 15/10 Q1027

Time: 15:27 (14:27 UTC)


TAF: missing

Weather observations and forecasts of more than 4000 airports (METAR and TAF reports).

The available stations are represented by yellow and red dots on the map.

Hover mouse over dot to see the name of the station.

Then click to see weather observations and forecasts.

To change the map : click on the green buttons with a black cross to zoom in, on the green button with a dash to zoom out, or on the green arrows for adjacent maps.


METAR-TAF: